DW4338 Bergen NO current weather conditions

sailwx.info

Wind from 203

Air temperature 8.3° C
Dewpoint 6.6° C

Last reported at 2017-May-22 23:02 UTC.
Time now 2017-May-22 23:18 UTC

Location: N 60°31' E 004°54'.
View on Google Maps.

See reports from other nearby stations

  
Tides and Currents Weather Stations Pressure Air Temp Water Temp Dewpoint Dewpoint Depression Visibility Wind Speed Wind Dir Waves Ship Positions
date/time (UTC)wind fromknots sea level pressurealtimeterstation pressurevisibilityair tempwater tempwave heightnotes
2017-May-22 23:02 203 8.3
2017-May-22 22:46 203 8.3
2017-May-22 22:32 203 8.3
2017-May-22 22:16 203 8.3
2017-May-22 22:01 203 8.3
2017-May-22 21:46 203 8.3
2017-May-22 21:31 203 8.3
2017-May-22 21:16 234 8.3
2017-May-22 21:01 234 8.3
2017-May-22 20:46 234 8.3
2017-May-22 20:31 234 8.9
2017-May-22 20:16 234 8.9
2017-May-22 20:01 234 9.4
2017-May-22 19:46 234 9.4
2017-May-22 19:31 234 10.0
2017-May-22 19:16 234 4 gusting 12 10.0
2017-May-22 19:01 235 4 gusting 13 10.6
2017-May-22 18:46 260 9 gusting 19 10.6
2017-May-22 18:31 244 7 gusting 16 11.1
2017-May-22 18:16 241 6 gusting 13 11.1
2017-May-22 18:01 233 2 gusting 13 11.7
2017-May-22 17:46 259 7 gusting 13 11.7
2017-May-22 17:31 205 6 gusting 13 11.7
2017-May-22 17:16 261 5 gusting 12 11.7
2017-May-22 17:01 262 6 gusting 13 11.7
2017-May-22 16:46 248 6 gusting 25 11.1
2017-May-22 16:31 288 15 gusting 25 11.1
2017-May-22 16:16 206 7 gusting 23 11.7
2017-May-22 16:01 263 6 gusting 22 11.7
2017-May-22 15:46 268 11 gusting 26 12.2
2017-May-22 15:31 230 7 gusting 19 12.2
2017-May-22 15:16 226 6 gusting 23 11.1
2017-May-22 15:01 216 13 gusting 27 11.1
2017-May-22 14:46 225 4 gusting 18 11.7
2017-May-22 14:31 253 13 gusting 26 11.7
2017-May-22 14:16 257 16 gusting 27 11.7
2017-May-22 14:01 234 9 gusting 27 11.7
2017-May-22 13:46 207 16 gusting 32 12.2
2017-May-22 13:31 269 17 gusting 33 12.2
2017-May-22 13:16 259 13 gusting 29 12.8
2017-May-22 13:01 260 8 gusting 22 12.8
2017-May-22 12:46 239 12 gusting 27 12.2
2017-May-22 12:31 223 11 gusting 26 11.7
2017-May-22 12:15 228 8 gusting 23 11.7
2017-May-22 12:01 236 11 gusting 26 11.7
2017-May-22 11:46 212 11 gusting 31 12.2
2017-May-22 11:30 248 10 gusting 26 11.7
2017-May-22 11:15 229 10 gusting 30 11.1
2017-May-22 11:00 227 13 gusting 26 11.1
2017-May-22 10:45 211 15 gusting 29 11.1
2017-May-22 10:30 225 13 gusting 27 10.6
2017-May-22 10:15 241 16 gusting 35 10.6
2017-May-22 10:00 197 13 gusting 28 10.6
2017-May-22 09:45 240 12 gusting 30 10.0
2017-May-22 09:30 158 13 gusting 32 10.0
2017-May-22 09:15 234 13 gusting 26 10.0
2017-May-22 09:00 252 6 gusting 26 10.0
2017-May-22 08:45 244 12 gusting 23 9.4
2017-May-22 08:30 213 13 gusting 28 9.4
2017-May-22 08:15 216 13 gusting 25 9.4
2017-May-22 08:00 227 10 gusting 27 9.4
2017-May-22 07:45 218 13 gusting 29 9.4
2017-May-22 07:30 192 14 gusting 30 9.4
2017-May-22 07:15 198 14 gusting 29 9.4
2017-May-22 06:59 228 12 gusting 35 9.4
2017-May-22 06:44 222 17 gusting 39 8.9
2017-May-22 06:29 233 12 gusting 31 8.9
2017-May-22 06:14 205 9 gusting 26 8.9
2017-May-22 05:59 193 11 gusting 23 8.3
2017-May-22 05:44 223 12 gusting 27 8.3
2017-May-22 05:29 207 6 gusting 26 8.3
2017-May-22 05:14 240 9 gusting 29 8.3
2017-May-22 04:59 204 1 gusting 15 8.3
2017-May-22 04:44 214 2 gusting 10 8.3
2017-May-22 04:29 228 8.3
2017-May-22 04:14 175 8.3
2017-May-22 03:59 203 5 gusting 19 8.3
2017-May-22 03:44 211 3 gusting 12 8.3
2017-May-22 03:29 218 0 gusting 11 7.8
2017-May-22 03:14 232 7.8
2017-May-22 02:59 206 2 gusting 19 7.8
2017-May-22 02:44 241 2 gusting 15 7.8
2017-May-22 02:29 249 13 gusting 25 7.8
2017-May-22 02:14 233 9 gusting 24 7.8
2017-May-22 01:59 231 8 gusting 20 7.8
2017-May-22 01:44 235 6 gusting 19 7.8
2017-May-22 01:29 249 6 gusting 17 7.8
2017-May-22 01:14 228 7 gusting 21 7.8
2017-May-22 00:59 228 11 gusting 19 8.3
2017-May-22 00:44 242 4 gusting 19 7.8
2017-May-22 00:29 246 11 gusting 21 7.8
2017-May-22 00:14 263 8 gusting 19 8.3
2017-May-21 23:59 253 8 gusting 23 7.8
2017-May-21 23:44 238 6 gusting 19 7.8
2017-May-21 23:29 209 8 gusting 29 7.8
2017-May-21 23:14 242 8 gusting 28 7.8
2017-May-21 22:59 248 18 gusting 30 7.8
2017-May-21 22:44 221 12 gusting 29 7.8
2017-May-21 22:29 242 13 gusting 35 8.3
2017-May-21 22:14 259 8 gusting 26 8.3
2017-May-21 21:59 237 10 gusting 27 8.3
2017-May-21 21:44 253 8 gusting 21 8.3
2017-May-21 21:29 205 13 gusting 27 8.3
2017-May-21 21:14 232 15 gusting 34 8.3
2017-May-21 20:59 194 17 gusting 33 8.3
2017-May-21 20:44 232 14 gusting 35 8.3
2017-May-21 20:28 223 11 gusting 30 8.3
2017-May-21 20:13 194 12 gusting 33 8.3
2017-May-21 19:59 210 9 gusting 27 8.3
2017-May-21 19:44 205 11 gusting 27 8.3
2017-May-21 19:28 214 18 gusting 32 8.3
2017-May-21 19:14 247 13 gusting 34 8.3
2017-May-21 18:58 182 18 gusting 33 8.3
2017-May-21 18:43 238 15 gusting 36 8.3
2017-May-21 18:28 229 15 gusting 30 8.3
2017-May-21 18:13 206 14 gusting 33 8.3
2017-May-21 17:58 198 13 gusting 33 8.3
2017-May-21 17:43 191 19 gusting 39 8.3
2017-May-21 17:28 161 12 gusting 35 8.3
2017-May-21 17:13 161 15 gusting 39 8.3
2017-May-21 16:58 211 15 gusting 34 8.3
2017-May-21 16:43 198 14 gusting 36 8.3
2017-May-21 16:28 222 15 gusting 34 8.3
2017-May-21 16:13 198 13 gusting 41 8.9
2017-May-21 15:58 210 16 gusting 38 8.9
2017-May-21 15:43 210 19 gusting 38 8.9
2017-May-21 15:28 222 16 gusting 39 8.9
2017-May-21 15:13 202 19 gusting 34 8.9
2017-May-21 14:58 164 18 gusting 38 8.9
2017-May-21 14:43 220 15 gusting 35 9.4
2017-May-21 14:28 207 13 gusting 30 9.4
2017-May-21 14:13 207 14 gusting 36 9.4
2017-May-21 13:58 247 14 gusting 31 9.4
2017-May-21 13:43 197 16 gusting 33 9.4
2017-May-21 13:28 210 13 gusting 35 9.4
2017-May-21 13:13 214 15 gusting 39 10.0
2017-May-21 12:58 213 24 gusting 39 10.6
2017-May-21 12:43 265 23 gusting 38 10.6
2017-May-21 12:28 208 12 gusting 29 10.0
2017-May-21 12:13 251 17 gusting 39 10.6
2017-May-21 11:58 202 17 gusting 34 11.1
2017-May-21 11:43 216 14 gusting 40 11.1
2017-May-21 11:28 213 15 gusting 30 10.6
2017-May-21 11:13 263 22 gusting 38 10.6
2017-May-21 10:58 255 21 gusting 38 11.1
2017-May-21 10:43 236 25 gusting 40 11.1
2017-May-21 10:28 234 19 gusting 39 11.1
2017-May-21 10:13 250 17 gusting 38 11.1
2017-May-21 09:58 244 19 gusting 35 10.6
2017-May-21 09:43 293 14 gusting 32 11.1
2017-May-21 09:28 248 18 gusting 37 10.6
2017-May-21 09:13 215 13 gusting 26 10.6
2017-May-21 08:58 264 6 gusting 24 10.6
2017-May-21 08:43 244 15 gusting 28 10.6
2017-May-21 08:28 248 16 gusting 29 10.6
2017-May-21 08:13 220 3 gusting 24 10.6
2017-May-21 07:58 258 8 gusting 22 10.6
2017-May-21 07:43 252 14 gusting 25 10.6
2017-May-21 07:27 259 6 gusting 19 10.6
2017-May-21 07:12 240 13 gusting 23 10.0
2017-May-21 06:57 232 4 gusting 17 10.0
2017-May-21 06:42 264 5 gusting 19 10.0
2017-May-21 06:27 227 7 gusting 18 10.0
2017-May-21 06:12 237 5 gusting 19 8.9
2017-May-21 05:57 233 6 gusting 17 8.9
2017-May-21 05:42 217 3 gusting 19 8.9
2017-May-21 05:27 219 10 gusting 21 8.3
2017-May-21 05:12 227 13 gusting 29 8.3
2017-May-21 04:57 212 6 gusting 18 8.3
2017-May-21 04:42 201 7 gusting 15 8.3
2017-May-21 04:27 192 2 gusting 16 8.3
2017-May-21 04:12 205 7.8
2017-May-21 03:57 188 6 gusting 13 7.8
2017-May-21 03:42 155 8 gusting 16 7.2
2017-May-21 03:27 150 8 gusting 13 7.2
2017-May-21 03:12 206 7 gusting 13 7.2
2017-May-21 02:57 208 0 gusting 13 7.2
2017-May-21 02:42 191 7.8
2017-May-21 02:27 202 0 gusting 19 7.8
2017-May-21 02:12 202 4 gusting 10 7.8
2017-May-21 01:57 218 3 gusting 17 7.8
2017-May-21 01:42 184 0 gusting 12 7.8
2017-May-21 01:27 207 8.3
2017-May-21 01:12 198 8.3
2017-May-21 00:57 198 8.3
2017-May-21 00:42 189 1 gusting 11 8.3
2017-May-21 00:27 191 8.3
2017-May-21 00:12 169 0 gusting 13 8.3
2017-May-20 23:57 188 8.3
2017-May-20 23:42 150 11 gusting 21 8.9
2017-May-20 23:27 184 2 gusting 12 8.9
2017-May-20 23:11 188 7 gusting 25 8.9